createdAt,value
2022-11-30T00:01:58.690Z,103316.13
2022-11-30T00:05:03.778Z,103313.81
2022-11-30T00:08:08.792Z,103315.53
2022-11-30T00:11:20.819Z,103315.09
2022-11-30T00:14:25.860Z,103314.81
2022-11-30T00:17:30.626Z,103315.47
2022-11-30T00:20:53.336Z,103316.41
2022-11-30T00:23:58.597Z,103310.50
2022-11-30T00:27:04.993Z,103315.56
2022-11-30T00:30:14.693Z,103324.09
2022-11-30T00:33:19.278Z,103329.94
2022-11-30T00:36:24.587Z,103326.59
2022-11-30T00:39:34.012Z,103329.88
2022-11-30T00:42:41.766Z,103318.72
2022-11-30T00:45:46.538Z,103323.84
2022-11-30T00:48:51.237Z,103322.31
2022-11-30T00:51:56.021Z,103317.91
2022-11-30T00:55:04.076Z,103324.31
2022-11-30T00:58:13.668Z,103328.69
2022-11-30T01:01:19.113Z,103320.81
2022-11-30T01:04:24.360Z,103318.38
2022-11-30T01:07:29.107Z,103326.91
2022-11-30T01:10:35.256Z,103323.41
2022-11-30T01:13:41.669Z,103324.88
2022-11-30T01:16:46.394Z,103331.88
2022-11-30T01:19:51.366Z,103319.84
2022-11-30T01:22:56.669Z,103329.38
2022-11-30T01:26:01.422Z,103321.91
2022-11-30T01:29:07.997Z,103325.19
2022-11-30T01:32:14.738Z,103332.84
2022-11-30T01:35:19.332Z,103330.19
2022-11-30T01:38:24.025Z,103335.00
2022-11-30T01:41:30.692Z,103324.16
2022-11-30T01:44:54.860Z,103333.22
2022-11-30T01:47:59.654Z,103326.81
2022-11-30T01:51:04.396Z,103332.56
2022-11-30T01:54:13.074Z,103331.72
2022-11-30T01:57:23.149Z,103326.75
2022-11-30T02:00:29.668Z,103323.25
2022-11-30T02:03:41.194Z,103322.16
2022-11-30T02:06:46.245Z,103316.59
2022-11-30T02:09:51.245Z,103317.66
2022-11-30T02:13:42.069Z,103320.28
2022-11-30T02:16:57.143Z,103328.53
2022-11-30T02:20:36.333Z,103321.19
2022-11-30T02:24:34.380Z,103314.31
2022-11-30T02:28:05.438Z,103317.75
2022-11-30T02:31:16.464Z,103314.22
2022-11-30T02:34:23.150Z,103318.50
2022-11-30T02:37:29.069Z,103322.81
2022-11-30T02:40:33.779Z,103316.72
2022-11-30T02:43:39.372Z,103320.00
2022-11-30T02:47:02.483Z,103318.88
2022-11-30T02:50:12.169Z,103328.03
2022-11-30T02:53:16.867Z,103323.78
2022-11-30T02:56:22.209Z,103321.56
2022-11-30T02:59:28.079Z,103326.84
2022-11-30T03:02:34.275Z,103330.63
2022-11-30T03:05:39.188Z,103325.78
2022-11-30T03:08:44.249Z,103322.97
2022-11-30T03:11:49.050Z,103328.91
2022-11-30T03:14:54.297Z,103324.81
2022-11-30T03:18:03.225Z,103324.88
2022-11-30T03:21:08.920Z,103330.78
2022-11-30T03:24:13.825Z,103323.19
2022-11-30T03:27:18.498Z,103312.91
2022-11-30T03:30:23.224Z,103318.13
2022-11-30T03:33:29.415Z,103303.59
2022-11-30T03:36:34.129Z,103310.38
2022-11-30T03:39:38.831Z,103309.50
2022-11-30T03:42:43.389Z,103309.88
2022-11-30T03:45:48.135Z,103325.50
2022-11-30T03:48:54.401Z,103310.72
2022-11-30T03:51:59.039Z,103325.00
2022-11-30T03:55:03.913Z,103314.94
2022-11-30T03:58:09.445Z,103319.94
2022-11-30T04:01:17.007Z,103316.53
2022-11-30T04:04:23.129Z,103325.78
2022-11-30T04:07:27.887Z,103322.25
2022-11-30T04:10:32.829Z,103336.63
2022-11-30T04:13:39.276Z,103327.03
2022-11-30T04:16:43.932Z,103331.69
2022-11-30T04:19:49.931Z,103336.00
2022-11-30T04:22:54.938Z,103329.13
2022-11-30T04:25:59.632Z,103331.84
2022-11-30T04:29:05.285Z,103339.34
2022-11-30T04:32:10.846Z,103331.16
2022-11-30T04:35:17.140Z,103332.06
2022-11-30T04:38:21.855Z,103338.06
2022-11-30T04:41:26.527Z,103335.31
2022-11-30T04:44:31.177Z,103347.06
2022-11-30T04:47:36.157Z,103336.94
2022-11-30T04:50:42.185Z,103336.34
2022-11-30T04:53:46.899Z,103337.19
2022-11-30T04:56:51.493Z,103345.72
2022-11-30T04:59:56.535Z,103335.75
2022-11-30T05:03:01.300Z,103343.25
2022-11-30T05:06:07.965Z,103339.88
2022-11-30T05:09:12.679Z,103346.72
2022-11-30T05:12:17.472Z,103346.81
2022-11-30T05:15:22.457Z,103339.72
2022-11-30T05:18:27.258Z,103344.34
2022-11-30T05:21:33.438Z,103345.03
2022-11-30T05:24:38.478Z,103344.34
2022-11-30T05:27:43.089Z,103356.19
2022-11-30T05:30:47.804Z,103354.28
2022-11-30T05:33:52.825Z,103347.69
2022-11-30T05:37:00.445Z,103349.97
2022-11-30T05:40:06.419Z,103341.97
2022-11-30T05:43:12.972Z,103340.03
2022-11-30T05:46:17.782Z,103353.59
2022-11-30T05:49:22.569Z,103356.09
2022-11-30T05:52:28.562Z,103362.78
2022-11-30T05:55:33.304Z,103369.78
2022-11-30T05:58:39.766Z,103370.53
2022-11-30T06:01:44.988Z,103367.13
2022-11-30T06:04:49.961Z,103376.31
2022-11-30T06:07:56.778Z,103369.88
2022-11-30T06:11:02.773Z,103372.47
2022-11-30T06:14:07.683Z,103381.78
2022-11-30T06:17:13.088Z,103380.69
2022-11-30T06:20:17.897Z,103382.41
2022-11-30T06:23:23.901Z,103387.41
2022-11-30T06:26:28.949Z,103393.28
2022-11-30T06:29:33.614Z,103395.66
2022-11-30T06:32:38.422Z,103391.03
2022-11-30T06:35:47.565Z,103380.78
2022-11-30T06:38:53.864Z,103391.03
2022-11-30T06:41:58.497Z,103400.00
2022-11-30T06:45:03.277Z,103406.06
2022-11-30T06:48:08.076Z,103401.63
2022-11-30T06:51:13.203Z,103401.00
2022-11-30T06:54:19.232Z,103411.75
2022-11-30T06:57:29.089Z,103409.34
2022-11-30T07:00:33.772Z,103408.84
2022-11-30T07:03:39.161Z,103420.53
2022-11-30T07:06:43.871Z,103409.53
2022-11-30T07:09:50.833Z,103428.81
2022-11-30T07:12:56.084Z,103429.66
2022-11-30T07:16:00.988Z,103429.47
2022-11-30T07:19:06.042Z,103428.53
2022-11-30T07:22:10.711Z,103437.78
2022-11-30T07:25:34.426Z,103428.41
2022-11-30T07:28:41.577Z,103439.16
2022-11-30T07:31:52.448Z,103438.22
2022-11-30T07:34:57.115Z,103438.22
2022-11-30T07:38:08.240Z,103435.69
2022-11-30T07:41:16.049Z,103432.38
2022-11-30T07:44:20.732Z,103435.31
2022-11-30T07:47:25.395Z,103433.88
2022-11-30T07:50:30.245Z,103435.38
2022-11-30T07:53:35.474Z,103435.38
2022-11-30T07:56:41.465Z,103437.16
2022-11-30T07:59:46.793Z,103433.19
2022-11-30T08:02:52.053Z,103443.53
2022-11-30T08:06:02.955Z,103455.28
2022-11-30T08:09:07.820Z,103456.19
2022-11-30T08:12:14.713Z,103453.63
2022-11-30T08:15:21.007Z,103456.94
2022-11-30T08:18:26.648Z,103458.69
2022-11-30T08:21:32.528Z,103473.03
2022-11-30T08:24:37.204Z,103481.94
2022-11-30T08:27:43.230Z,103472.56
2022-11-30T08:30:48.293Z,103474.47
2022-11-30T08:33:57.418Z,103474.47
2022-11-30T08:37:02.033Z,103480.19
2022-11-30T08:40:08.624Z,103484.66
2022-11-30T08:43:15.952Z,103482.75
2022-11-30T08:49:47.191Z,103485.41
2022-11-30T08:52:51.809Z,103483.91
2022-11-30T08:55:58.289Z,103481.06
2022-11-30T08:59:04.323Z,103483.53
2022-11-30T09:02:11.151Z,103490.25
2022-11-30T09:05:15.969Z,103497.13
2022-11-30T09:08:20.877Z,103486.19
2022-11-30T09:11:28.218Z,103493.13
2022-11-30T09:14:34.673Z,103499.09
2022-11-30T09:17:39.324Z,103496.50
2022-11-30T09:20:44.178Z,103505.81
2022-11-30T09:23:49.823Z,103493.91
2022-11-30T09:26:57.746Z,103498.03
2022-11-30T09:30:04.822Z,103493.16
2022-11-30T09:33:10.556Z,103500.81
2022-11-30T09:36:17.218Z,103495.13
2022-11-30T09:39:21.975Z,103489.19
2022-11-30T09:42:47.466Z,103490.94
2022-11-30T09:45:58.634Z,103484.78
2022-11-30T09:49:05.481Z,103490.19
2022-11-30T09:52:17.733Z,103490.19
2022-11-30T09:55:28.197Z,103484.63
2022-11-30T09:58:40.910Z,103492.63
2022-11-30T10:01:51.986Z,103488.44
2022-11-30T10:05:01.704Z,103485.84
2022-11-30T10:08:22.583Z,103492.09
2022-11-30T10:11:42.885Z,103488.63
2022-11-30T10:15:04.261Z,103488.44
2022-11-30T10:18:18.542Z,103488.63
2022-11-30T10:21:37.902Z,103489.63
2022-11-30T10:25:07.195Z,103491.16
2022-11-30T10:28:49.161Z,103487.84
2022-11-30T10:31:45.612Z,103484.50
2022-11-30T10:34:56.246Z,103482.63
2022-11-30T10:38:04.744Z,103487.03
2022-11-30T10:41:13.673Z,103474.69
2022-11-30T10:44:23.215Z,103470.59
2022-11-30T10:47:33.987Z,103472.38
2022-11-30T10:50:41.658Z,103469.88
2022-11-30T10:53:46.870Z,103466.66
2022-11-30T10:56:51.616Z,103468.19
2022-11-30T10:59:56.920Z,103474.13
2022-11-30T11:03:01.672Z,103459.75
2022-11-30T11:06:16.806Z,103468.97
2022-11-30T11:09:35.337Z,103470.59
2022-11-30T11:12:40.193Z,103466.53
2022-11-30T11:15:59.123Z,103470.72
2022-11-30T11:19:04.059Z,103472.47
2022-11-30T11:22:18.713Z,103471.72
2022-11-30T11:25:26.671Z,103469.25
2022-11-30T11:28:31.708Z,103466.53
2022-11-30T11:31:39.063Z,103463.22
2022-11-30T11:34:47.968Z,103464.00
2022-11-30T11:37:57.037Z,103479.56
2022-11-30T11:41:04.892Z,103470.19
2022-11-30T11:44:22.381Z,103480.94
2022-11-30T11:47:30.508Z,103480.31
2022-11-30T11:51:05.553Z,103481.06
2022-11-30T11:54:12.274Z,103482.78
2022-11-30T11:57:19.218Z,103477.94
2022-11-30T12:00:25.425Z,103472.03
2022-11-30T12:03:37.884Z,103474.56
2022-11-30T12:06:43.910Z,103488.28
2022-11-30T12:10:03.869Z,103483.81
2022-11-30T12:13:17.078Z,103488.94
2022-11-30T12:16:34.909Z,103484.81
2022-11-30T12:19:52.110Z,103492.44
2022-11-30T12:23:20.378Z,103499.19
2022-11-30T12:26:35.848Z,103503.34
2022-11-30T12:29:49.887Z,103501.31
2022-11-30T12:33:14.317Z,103498.03
2022-11-30T12:36:26.258Z,103497.06
2022-11-30T12:39:37.390Z,103500.75
2022-11-30T12:42:48.542Z,103503.53
2022-11-30T12:45:56.780Z,103512.06
2022-11-30T12:49:21.192Z,103504.22
2022-11-30T12:52:40.157Z,103507.00
2022-11-30T12:55:50.856Z,103517.25
2022-11-30T12:59:04.198Z,103518.00
2022-11-30T13:02:30.918Z,103511.03
2022-11-30T13:05:41.297Z,103515.28
2022-11-30T13:08:55.093Z,103520.03
2022-11-30T13:12:05.152Z,103518.84
2022-11-30T13:15:19.053Z,103517.84
2022-11-30T13:18:26.108Z,103523.59
2022-11-30T13:21:33.977Z,103522.59
2022-11-30T13:24:41.385Z,103523.41
2022-11-30T13:27:56.943Z,103524.00
2022-11-30T13:31:09.435Z,103522.75
2022-11-30T13:34:29.968Z,103528.81
2022-11-30T13:37:34.671Z,103532.66
2022-11-30T13:40:39.827Z,103525.88
2022-11-30T13:43:48.223Z,103538.41
2022-11-30T13:46:54.940Z,103535.81
2022-11-30T13:50:01.606Z,103538.81
2022-11-30T13:53:25.829Z,103539.53
2022-11-30T13:56:36.275Z,103534.25
2022-11-30T13:59:48.679Z,103536.00
2022-11-30T14:06:50.116Z,103534.75
2022-11-30T14:10:00.819Z,103531.38
2022-11-30T14:13:06.087Z,103529.41
2022-11-30T14:16:23.737Z,103523.94
2022-11-30T14:19:30.593Z,103528.78
2022-11-30T14:22:35.262Z,103532.53
2022-11-30T14:25:43.105Z,103531.66
2022-11-30T14:28:54.485Z,103530.56
2022-11-30T14:32:03.254Z,103530.72
2022-11-30T14:35:16.014Z,103522.97
2022-11-30T14:38:26.704Z,103537.41
2022-11-30T14:41:33.608Z,103536.94
2022-11-30T14:44:41.856Z,103540.03
2022-11-30T14:47:48.201Z,103541.81
2022-11-30T14:50:57.378Z,103544.47
2022-11-30T14:54:10.202Z,103548.59
2022-11-30T14:57:24.236Z,103547.72
2022-11-30T15:00:28.951Z,103544.22
2022-11-30T15:03:40.381Z,103549.38
2022-11-30T15:06:46.926Z,103551.75
2022-11-30T15:09:57.547Z,103547.88
2022-11-30T15:13:02.756Z,103550.25
2022-11-30T15:16:11.431Z,103555.22
2022-11-30T15:19:25.369Z,103541.72
2022-11-30T15:22:36.051Z,103546.88
2022-11-30T15:25:43.838Z,103544.22
2022-11-30T15:28:57.698Z,103555.66
2022-11-30T15:32:06.438Z,103547.28
2022-11-30T15:35:21.774Z,103545.56
2022-11-30T15:38:28.941Z,103552.22
2022-11-30T15:41:34.390Z,103549.88
2022-11-30T15:44:46.678Z,103549.44
2022-11-30T15:47:51.829Z,103551.19
2022-11-30T15:50:56.557Z,103557.47
2022-11-30T15:54:02.554Z,103547.72
2022-11-30T15:57:09.283Z,103556.88
2022-11-30T16:00:23.379Z,103552.03
2022-11-30T16:03:28.044Z,103559.56
2022-11-30T16:06:36.460Z,103566.44
2022-11-30T16:09:42.630Z,103564.59
2022-11-30T16:12:48.135Z,103562.09
2022-11-30T16:15:53.672Z,103562.41
2022-11-30T16:18:58.318Z,103556.81
2022-11-30T16:22:03.080Z,103559.41
2022-11-30T16:25:14.816Z,103562.03
2022-11-30T16:28:20.909Z,103558.28
2022-11-30T16:31:25.828Z,103561.25
2022-11-30T16:34:30.545Z,103558.84
2022-11-30T16:37:35.426Z,103557.97
2022-11-30T16:40:41.714Z,103559.50
2022-11-30T16:43:47.154Z,103565.78
2022-11-30T16:46:54.019Z,103568.38
2022-11-30T16:49:58.969Z,103561.88
2022-11-30T16:53:03.990Z,103565.13
2022-11-30T16:56:12.773Z,103565.41
2022-11-30T16:59:17.573Z,103570.56
2022-11-30T17:02:24.682Z,103576.97
2022-11-30T17:05:29.566Z,103581.22
2022-11-30T17:08:34.509Z,103581.22
2022-11-30T17:11:41.602Z,103582.22
2022-11-30T17:14:46.820Z,103585.63
2022-11-30T17:17:51.799Z,103585.50
2022-11-30T17:20:56.975Z,103582.22
2022-11-30T17:24:02.201Z,103588.69
2022-11-30T17:27:08.345Z,103590.53
2022-11-30T17:30:15.155Z,103578.03
2022-11-30T17:33:19.816Z,103591.47
2022-11-30T17:36:24.619Z,103590.28
2022-11-30T17:39:29.268Z,103583.69
2022-11-30T17:42:35.351Z,103593.81
2022-11-30T17:45:41.457Z,103585.72
2022-11-30T17:48:46.624Z,103594.66
2022-11-30T17:51:51.569Z,103598.84
2022-11-30T17:54:56.281Z,103599.72
2022-11-30T17:58:02.245Z,103599.97
2022-11-30T18:01:08.276Z,103590.78
2022-11-30T18:04:13.563Z,103596.06
2022-11-30T18:07:18.299Z,103599.44
2022-11-30T18:10:23.001Z,103611.94
2022-11-30T18:13:31.147Z,103595.31
2022-11-30T18:16:38.156Z,103602.25
2022-11-30T18:19:42.856Z,103603.84
2022-11-30T18:22:47.409Z,103603.22
2022-11-30T18:25:52.184Z,103594.72
2022-11-30T18:29:00.336Z,103593.78
2022-11-30T18:32:05.369Z,103599.00
2022-11-30T18:35:12.107Z,103607.53
2022-11-30T18:38:17.028Z,103616.94
2022-11-30T18:41:22.160Z,103614.25
2022-11-30T18:44:28.209Z,103611.06
2022-11-30T18:47:32.872Z,103617.66
2022-11-30T18:50:37.662Z,103611.81
2022-11-30T18:53:43.158Z,103616.06
2022-11-30T18:56:47.856Z,103617.19
2022-11-30T18:59:54.229Z,103626.69
2022-11-30T19:02:58.984Z,103630.03
2022-11-30T19:06:04.935Z,103630.84
2022-11-30T19:09:12.002Z,103628.56
2022-11-30T19:12:16.728Z,103637.94
2022-11-30T19:15:22.847Z,103639.75
2022-11-30T19:18:27.494Z,103638.06
2022-11-30T19:21:32.375Z,103639.06
2022-11-30T19:24:37.039Z,103641.25
2022-11-30T19:27:41.809Z,103650.59
2022-11-30T19:30:47.894Z,103648.13
2022-11-30T19:33:54.593Z,103650.72
2022-11-30T19:36:59.453Z,103649.13
2022-11-30T19:40:04.274Z,103648.25
2022-11-30T19:43:09.581Z,103644.00
2022-11-30T19:46:17.575Z,103646.75
2022-11-30T19:49:22.376Z,103641.09
2022-11-30T19:52:27.088Z,103647.81
2022-11-30T19:55:31.922Z,103644.22
2022-11-30T19:58:36.606Z,103650.28
2022-11-30T20:01:42.727Z,103664.69
2022-11-30T20:04:47.982Z,103657.22
2022-11-30T20:07:52.866Z,103659.75
2022-11-30T20:10:57.636Z,103653.16
2022-11-30T20:14:02.312Z,103658.09
2022-11-30T20:17:09.089Z,103662.28
2022-11-30T20:20:14.866Z,103658.75
2022-11-30T20:23:19.588Z,103661.16
2022-11-30T20:26:27.512Z,103673.13
2022-11-30T20:29:32.507Z,103671.75
2022-11-30T20:32:42.310Z,103666.75
2022-11-30T20:35:46.934Z,103677.66
2022-11-30T20:38:52.095Z,103677.03
2022-11-30T20:41:56.849Z,103676.16
2022-11-30T20:45:02.277Z,103671.19
2022-11-30T20:48:08.553Z,103679.09
2022-11-30T20:51:30.761Z,103677.09
2022-11-30T20:54:36.591Z,103683.66
2022-11-30T20:57:41.366Z,103688.09
2022-11-30T21:00:45.994Z,103680.56
2022-11-30T21:03:52.054Z,103689.09
2022-11-30T21:06:56.918Z,103681.22
2022-11-30T21:10:01.599Z,103683.03
2022-11-30T21:13:06.380Z,103689.03
2022-11-30T21:16:15.999Z,103683.84
2022-11-30T21:19:22.121Z,103682.38
2022-11-30T21:22:28.028Z,103685.91
2022-11-30T21:25:32.671Z,103690.09
2022-11-30T21:28:38.426Z,103688.97
2022-11-30T21:31:43.623Z,103690.69
2022-11-30T21:34:49.859Z,103690.81
2022-11-30T21:37:54.686Z,103692.63
2022-11-30T21:41:00.850Z,103704.94
2022-11-30T21:44:06.405Z,103698.34
2022-11-30T21:47:14.495Z,103692.06
2022-11-30T21:50:24.419Z,103698.28
2022-11-30T21:53:32.691Z,103706.81
2022-11-30T21:56:40.549Z,103695.88
2022-11-30T21:59:45.306Z,103702.56
2022-11-30T22:02:51.084Z,103707.09
2022-11-30T22:06:06.364Z,103695.97
2022-11-30T22:09:14.504Z,103693.16
2022-11-30T22:12:19.198Z,103700.94
2022-11-30T22:15:23.865Z,103695.28
2022-11-30T22:18:29.265Z,103699.34
2022-11-30T22:21:36.318Z,103694.41
2022-11-30T22:24:41.024Z,103696.88
2022-11-30T22:27:45.621Z,103690.97
2022-11-30T22:30:50.329Z,103703.63
2022-11-30T22:33:55.147Z,103703.63
2022-11-30T22:37:01.134Z,103706.66
2022-11-30T22:40:07.323Z,103704.19
2022-11-30T22:43:13.998Z,103698.31
2022-11-30T22:46:21.021Z,103705.38
2022-11-30T22:49:25.973Z,103703.19
2022-11-30T22:53:01.091Z,103700.78
2022-11-30T22:56:01.944Z,103711.56
2022-11-30T22:59:08.521Z,103705.91
2022-11-30T23:02:13.935Z,103701.78
2022-11-30T23:05:18.777Z,103701.84
2022-11-30T23:08:24.817Z,103700.13
2022-11-30T23:11:30.946Z,103696.84
2022-11-30T23:14:35.601Z,103696.91
2022-11-30T23:17:40.291Z,103694.38
2022-11-30T23:20:45.024Z,103702.72
2022-11-30T23:23:51.199Z,103704.66
2022-11-30T23:26:55.867Z,103706.25
2022-11-30T23:30:00.532Z,103702.78
2022-11-30T23:33:05.389Z,103693.66
2022-11-30T23:36:12.499Z,103693.59
2022-11-30T23:39:19.958Z,103697.06
2022-11-30T23:42:24.632Z,103703.72
2022-11-30T23:45:29.519Z,103689.47
2022-11-30T23:48:34.766Z,103696.84
2022-11-30T23:51:39.366Z,103695.84
2022-11-30T23:54:45.399Z,103698.56
2022-11-30T23:57:50.008Z,103697.72
